Time;durP1;ratioP1;P1;durP2;ratioP2;P2;SDS_P1;SDS_P2;PMS_P1;PMS_P2;Temp;Humidity;BMP_temperature;BMP_pressure;BME280_temperature;BME280_humidity;BME280_pressure;Samples;Min_cycle;Max_cycle;Signal;HPM_P1;HPM_P2
2022/07/24 00:02:21;;;;;;;5.90;3.75;;;;;;;27.14;38.77;99643.22;5083908;28;20028;-41
2022/07/24 00:04:46;;;;;;;6.43;4.00;;;;;;;26.71;39.69;99633.75;5075117;28;20035;-41
2022/07/24 00:07:12;;;;;;;5.65;4.13;;;;;;;26.78;39.53;99633.28;5079790;28;20177;-42
2022/07/24 00:09:37;;;;;;;7.45;4.05;;;;;;;26.67;39.91;99632.75;5080646;28;20032;-42
2022/07/24 00:12:03;;;;;;;9.35;4.30;;;;;;;26.63;40.03;99641.88;5085367;28;20111;-42
2022/07/24 00:14:29;;;;;;;8.70;4.30;;;;;;;26.81;39.65;99643.56;5084111;28;20510;-41
2022/07/24 00:16:54;;;;;;;9.10;4.10;;;;;;;26.80;39.60;99641.16;5079275;28;20020;-43
2022/07/24 00:19:20;;;;;;;5.32;4.15;;;;;;;26.45;40.12;99640.94;5075866;28;20431;-42
2022/07/24 00:21:45;;;;;;;4.97;3.80;;;;;;;26.47;40.34;99649.63;5082587;28;20020;-43
2022/07/24 00:24:10;;;;;;;7.93;4.30;;;;;;;26.33;40.59;99646.94;5081685;28;20099;-40
2022/07/24 00:26:36;;;;;;;5.22;3.80;;;;;;;26.38;40.47;99655.03;5081207;28;20029;-43
2022/07/24 00:29:03;;;;;;;6.22;4.00;;;;;;;26.80;39.41;99649.34;5076648;28;20035;-40
2022/07/24 00:31:28;;;;;;;8.77;4.53;;;;;;;26.37;40.44;99653.41;5086827;28;20032;-40
2022/07/24 00:33:54;;;;;;;6.47;4.10;;;;;;;26.29;40.59;99654.97;5075361;28;20036;-43
2022/07/24 00:36:19;;;;;;;7.38;4.30;;;;;;;26.10;41.07;99655.16;5078222;28;20028;-42
2022/07/24 00:38:44;;;;;;;9.73;4.90;;;;;;;26.13;40.91;99642.81;5082013;28;20029;-43
2022/07/24 00:41:10;;;;;;;7.63;4.50;;;;;;;26.10;41.24;99649.72;5079479;28;20032;-41
2022/07/24 00:44:14;;;;;;;10.60;5.43;;;;;;;26.41;40.41;99648.94;5078994;28;20036;-43
2022/07/24 00:46:41;;;;;;;9.82;5.82;;;;;;;25.99;41.18;99640.16;5080849;28;20103;-40
2022/07/24 00:49:10;;;;;;;8.18;6.22;;;;;;;25.91;41.57;99657.19;5080135;28;20186;-40
2022/07/24 00:51:36;;;;;;;10.77;6.13;;;;;;;25.74;41.99;99653.22;5076955;28;20056;-39
2022/07/24 00:54:05;;;;;;;8.70;6.25;;;;;;;25.92;41.67;99656.13;5081517;28;20051;-40
2022/07/24 00:56:31;;;;;;;10.55;6.38;;;;;;;26.20;40.92;99647.81;5083251;28;20101;-42
2022/07/24 00:58:56;;;;;;;14.18;6.40;;;;;;;25.93;41.24;99646.81;5086853;28;20077;-42
2022/07/24 01:01:22;;;;;;;11.23;6.57;;;;;;;25.67;41.93;99639.22;5085655;28;20024;-40
2022/07/24 01:03:47;;;;;;;9.52;6.43;;;;;;;25.64;42.18;99647.19;5089067;28;20062;-42
2022/07/24 01:06:14;;;;;;;13.32;6.13;;;;;;;25.62;42.27;99647.47;5085229;28;20020;-41
2022/07/24 01:08:40;;;;;;;11.20;5.95;;;;;;;25.83;41.79;99638.84;5083095;28;20024;-41
2022/07/24 01:11:06;;;;;;;8.63;6.00;;;;;;;26.25;40.90;99642.25;5073458;28;20033;-42
2022/07/24 01:13:31;;;;;;;7.38;5.63;;;;;;;25.81;41.77;99641.09;5073494;28;20032;-42
2022/07/24 01:15:58;;;;;;;6.75;5.72;;;;;;;25.79;41.80;99635.16;5073330;28;20117;-43
2022/07/24 01:18:24;;;;;;;9.32;5.80;;;;;;;25.83;41.73;99636.13;5073111;28;20025;-43
2022/07/24 01:20:50;;;;;;;13.40;5.80;;;;;;;25.54;42.54;99637.31;5073243;28;20028;-41
2022/07/24 01:23:16;;;;;;;6.60;5.78;;;;;;;25.92;41.75;99628.88;5072816;28;20032;-41
2022/07/24 01:25:41;;;;;;;8.38;5.30;;;;;;;26.16;41.39;99635.94;5073080;28;20024;-42
2022/07/24 01:28:07;;;;;;;11.85;5.68;;;;;;;25.66;42.42;99634.84;5073077;28;20090;-41
2022/07/24 01:30:32;;;;;;;10.75;5.28;;;;;;;25.61;42.53;99629.53;5073130;28;20071;-43
2022/07/24 01:32:58;;;;;;;7.60;5.28;;;;;;;25.65;42.45;99633.25;5072748;28;20491;-40
2022/07/24 01:35:24;;;;;;;8.27;5.18;;;;;;;25.42;42.96;99629.69;5072723;28;20243;-41
2022/07/24 01:37:53;;;;;;;9.98;5.22;;;;;;;26.06;41.74;99629.59;5072807;28;20097;-40
2022/07/24 01:40:20;;;;;;;7.75;4.82;;;;;;;25.59;42.71;99634.50;5072459;28;20028;-41
2022/07/24 01:42:45;;;;;;;7.35;4.90;;;;;;;25.19;43.52;99628.78;5082694;28;20036;-41
2022/07/24 01:45:11;;;;;;;7.45;5.05;;;;;;;25.24;43.33;99630.59;5092461;28;20077;-41
2022/07/24 01:47:36;;;;;;;7.40;4.40;;;;;;;25.40;43.34;99628.34;5092286;28;20020;-42
2022/07/24 01:50:02;;;;;;;6.47;4.50;;;;;;;25.71;42.34;99623.84;5091831;28;20536;-42
2022/07/24 01:52:28;;;;;;;6.15;4.32;;;;;;;26.16;41.68;99630.47;5092448;28;20089;-41
2022/07/24 01:54:53;;;;;;;6.80;4.53;;;;;;;25.81;42.21;99627.47;5092229;28;20405;-41
2022/07/24 01:57:19;;;;;;;5.88;4.25;;;;;;;25.70;42.71;99624.97;5092548;28;20425;-41
2022/07/24 01:59:45;;;;;;;5.38;4.40;;;;;;;25.60;42.82;99633.38;5092483;28;20107;-42
2022/07/24 02:02:10;;;;;;;8.75;4.55;;;;;;;25.55;43.11;99622.56;5092155;28;20107;-41
2022/07/24 02:04:36;;;;;;;8.27;4.50;;;;;;;25.88;42.26;99628.66;5092048;28;20020;-42
2022/07/24 02:07:01;;;;;;;6.63;4.22;;;;;;;25.74;42.73;99628.69;5092354;28;20023;-41
2022/07/24 02:09:27;;;;;;;7.97;4.38;;;;;;;25.59;43.38;99623.59;5092369;28;20080;-41
2022/07/24 02:11:52;;;;;;;8.40;4.45;;;;;;;25.85;42.73;99621.06;5091931;28;20024;-41
2022/07/24 02:14:18;;;;;;;6.32;4.05;;;;;;;25.88;42.47;99616.94;5090971;28;20035;-41
2022/07/24 02:16:43;;;;;;;7.65;4.32;;;;;;;25.87;42.51;99620.78;5092393;28;20428;-41
2022/07/24 02:19:09;;;;;;;10.52;4.15;;;;;;;26.55;41.26;99623.50;5092373;28;20058;-45
2022/07/24 02:21:35;;;;;;;5.00;3.88;;;;;;;25.91;42.46;99622.63;5092037;28;20028;-41
2022/07/24 02:24:00;;;;;;;6.57;4.18;;;;;;;25.45;43.69;99618.16;5092074;28;20042;-41
2022/07/24 02:26:26;;;;;;;5.88;3.80;;;;;;;25.04;44.54;99623.63;5092470;28;20027;-41
2022/07/24 02:28:51;;;;;;;5.78;4.00;;;;;;;25.07;44.44;99615.66;5092120;28;20020;-41
2022/07/24 02:31:17;;;;;;;5.45;3.88;;;;;;;25.30;44.02;99616.59;5091383;28;20095;-37
2022/07/24 02:33:42;;;;;;;6.65;3.72;;;;;;;26.06;42.24;99618.69;5090929;28;20118;-37
2022/07/24 02:36:08;;;;;;;6.88;4.03;;;;;;;25.78;43.06;99622.63;5091269;28;20096;-37
2022/07/24 02:38:34;;;;;;;8.27;4.15;;;;;;;25.33;44.09;99621.41;5091197;28;20031;-37
2022/07/24 02:41:00;;;;;;;5.90;3.90;;;;;;;25.67;43.59;99619.34;5091278;28;20028;-37
2022/07/24 02:43:25;;;;;;;9.00;4.20;;;;;;;25.93;43.19;99625.84;5090742;28;20081;-37
2022/07/24 02:45:51;;;;;;;5.68;3.83;;;;;;;26.29;42.52;99622.25;5091293;28;20176;-36
2022/07/24 02:48:16;;;;;;;8.00;4.53;;;;;;;26.27;42.12;99627.22;5091147;28;20067;-36
2022/07/24 02:50:42;;;;;;;6.57;4.38;;;;;;;25.86;43.23;99619.97;5090863;28;20056;-36
2022/07/24 02:53:07;;;;;;;8.63;4.10;;;;;;;25.72;43.50;99620.03;5090831;28;20062;-37
2022/07/24 02:55:33;;;;;;;11.10;4.28;;;;;;;25.70;43.44;99614.09;5090904;28;20034;-38
2022/07/24 02:57:58;;;;;;;9.27;4.32;;;;;;;25.89;42.89;99622.09;5091020;28;20412;-37
2022/07/24 03:00:24;;;;;;;7.43;4.55;;;;;;;26.55;41.82;99612.59;5091131;28;20054;-37
2022/07/24 03:02:49;;;;;;;7.07;4.25;;;;;;;26.02;43.28;99620.44;5090897;28;20031;-36
2022/07/24 03:05:15;;;;;;;9.23;4.43;;;;;;;25.68;44.29;99616.31;5090882;28;20448;-36
2022/07/24 03:07:41;;;;;;;5.47;4.10;;;;;;;25.45;44.67;99617.34;5090735;28;20030;-36
2022/07/24 03:10:08;;;;;;;6.55;4.25;;;;;;;25.60;44.42;99613.50;5090643;28;20490;-36
2022/07/24 03:12:34;;;;;;;8.20;4.65;;;;;;;25.92;43.59;99613.31;5090885;28;20054;-36
2022/07/24 03:14:59;;;;;;;9.55;4.55;;;;;;;26.18;42.77;99611.88;5090189;28;20476;-37
2022/07/24 03:17:25;;;;;;;6.93;4.20;;;;;;;25.66;43.95;99607.63;5089462;28;20031;-36
2022/07/24 03:19:50;;;;;;;7.13;4.40;;;;;;;25.52;44.50;99618.56;5091191;28;20036;-36
2022/07/24 03:22:16;;;;;;;8.70;4.50;;;;;;;25.54;44.76;99618.25;5090872;28;20050;-36
2022/07/24 03:24:41;;;;;;;8.60;4.88;;;;;;;25.46;44.93;99622.50;5090178;28;20070;-36
2022/07/24 03:27:07;;;;;;;7.65;4.25;;;;;;;26.12;43.39;99620.22;5090431;28;20132;-37
2022/07/24 03:29:32;;;;;;;8.95;4.60;;;;;;;25.75;44.48;99622.13;5090245;28;20077;-36
2022/07/24 03:31:58;;;;;;;10.77;4.50;;;;;;;25.53;45.21;99622.91;5090274;28;20028;-37
2022/07/24 03:34:23;;;;;;;6.70;4.38;;;;;;;25.59;44.19;99620.88;5089953;28;20468;-36
2022/07/24 03:36:48;;;;;;;10.05;4.57;;;;;;;25.74;44.25;99617.81;5089943;28;20064;-37
2022/07/24 03:39:14;;;;;;;11.50;4.70;;;;;;;25.79;44.18;99618.78;5076329;28;20028;-36
2022/07/24 03:41:39;;;;;;;9.20;4.47;;;;;;;26.49;42.71;99615.44;5069966;28;20445;-36
2022/07/24 03:44:06;;;;;;;7.38;4.80;;;;;;;26.03;43.76;99613.09;5090175;28;20020;-36
2022/07/24 03:46:31;;;;;;;10.43;4.50;;;;;;;25.62;44.33;99617.50;5090058;28;20084;-36
2022/07/24 03:48:57;;;;;;;10.48;5.00;;;;;;;25.63;45.00;99616.41;5089787;28;20032;-36
2022/07/24 03:51:22;;;;;;;6.80;5.03;;;;;;;25.72;44.86;99621.94;5090094;28;20048;-36
2022/07/24 03:53:49;;;;;;;8.48;4.90;;;;;;;26.19;43.75;99622.47;5090157;28;20024;-36
2022/07/24 03:56:15;;;;;;;12.80;5.03;;;;;;;27.24;41.01;99633.91;5090049;28;20105;-36
2022/07/24 03:58:40;;;;;;;10.50;5.00;;;;;;;26.80;42.69;99633.75;5089767;28;20031;-36
2022/07/24 04:01:06;;;;;;;10.27;4.78;;;;;;;26.79;43.12;99626.72;5089820;28;20024;-36
2022/07/24 04:03:32;;;;;;;10.95;4.93;;;;;;;26.87;43.05;99630.59;5089695;28;20603;-36
2022/07/24 04:05:59;;;;;;;6.50;4.53;;;;;;;27.18;42.43;99630.53;5090225;28;20031;-36
2022/07/24 04:08:25;;;;;;;9.10;4.63;;;;;;;27.46;42.26;99628.38;5090070;28;20103;-36
2022/07/24 04:10:56;;;;;;;10.18;5.28;;;;;;;28.31;39.75;99629.03;5089805;28;20524;-37
2022/07/24 04:13:25;;;;;;;10.18;4.68;;;;;;;28.14;39.88;99633.41;5090119;28;20028;-36
2022/07/24 04:15:51;;;;;;;;;;;;;;;28.20;40.90;99645.78;5090488;28;20449;-36
2022/07/24 04:18:16;;;;;;;8.23;4.93;;;;;;;28.37;40.77;99638.66;5090135;28;19908;-36
2022/07/24 04:20:42;;;;;;;8.90;4.82;;;;;;;28.42;40.55;99639.28;5090149;28;20149;-37
2022/07/24 04:23:07;;;;;;;8.98;5.20;;;;;;;29.27;38.67;99639.69;5090167;28;20677;-37
2022/07/24 04:25:34;;;;;;;7.22;5.15;;;;;;;29.23;38.79;99642.28;5090146;28;20146;-37
2022/07/24 04:28:00;;;;;;;8.50;4.63;;;;;;;29.19;39.30;99642.13;5089893;28;20103;-36
2022/07/24 04:30:26;;;;;;;8.07;4.97;;;;;;;29.19;39.69;99642.13;5088211;28;20059;-36
2022/07/24 04:32:52;;;;;;;8.02;5.25;;;;;;;29.24;37.92;99641.97;5089778;28;20155;-36
2022/07/24 04:35:17;;;;;;;11.13;5.00;;;;;;;29.66;37.82;99632.16;5090201;28;20120;-36
2022/07/24 04:37:42;;;;;;;9.20;5.60;;;;;;;30.18;36.13;99634.50;5092384;28;20024;-36
2022/07/24 04:40:09;;;;;;;11.65;5.85;;;;;;;29.94;36.38;99626.97;5073756;28;20036;-36
2022/07/24 04:42:34;;;;;;;7.78;5.07;;;;;;;30.07;37.01;99636.84;5082402;28;20383;-37
2022/07/24 04:45:00;;;;;;;12.98;6.25;;;;;;;30.03;35.99;99635.94;5093844;28;20128;-37
2022/07/24 04:47:25;;;;;;;8.90;5.65;;;;;;;30.38;35.49;99644.63;5093911;28;20039;-36
2022/07/24 04:49:51;;;;;;;18.20;6.20;;;;;;;31.22;33.65;99634.47;5094394;28;20392;-36
2022/07/24 04:52:16;;;;;;;10.88;5.60;;;;;;;30.57;34.13;99635.09;5093478;28;20121;-36
2022/07/24 04:54:42;;;;;;;9.40;5.53;;;;;;;30.52;34.77;99641.59;5093564;28;20039;-36
2022/07/24 04:57:07;;;;;;;9.88;5.78;;;;;;;30.72;34.26;99641.84;5093763;28;20040;-37
2022/07/24 04:59:33;;;;;;;13.38;5.68;;;;;;;31.13;33.94;99643.63;5093689;28;20024;-35
2022/07/24 05:01:58;;;;;;;9.75;5.40;;;;;;;32.25;31.91;99639.50;5093160;28;20032;-37
2022/07/24 05:04:24;;;;;;;12.63;5.70;;;;;;;31.93;32.61;99638.59;5093629;28;20030;-37
2022/07/24 05:06:49;;;;;;;8.10;5.47;;;;;;;31.91;32.96;99641.69;5093835;28;20075;-37
2022/07/24 05:09:15;;;;;;;9.40;5.20;;;;;;;32.09;32.82;99636.69;5093210;28;20570;-37
2022/07/24 05:11:40;;;;;;;8.52;5.25;;;;;;;33.09;31.31;99641.25;5093971;28;20456;-37
2022/07/24 05:14:06;;;;;;;9.75;5.63;;;;;;;32.79;31.43;99640.91;5093459;28;20024;-36
2022/07/24 05:16:31;;;;;;;11.82;5.70;;;;;;;32.68;31.72;99637.09;5093708;28;20065;-40
2022/07/24 05:18:57;;;;;;;14.40;5.40;;;;;;;32.81;31.48;99646.06;5093843;28;20024;-37
2022/07/24 05:21:22;;;;;;;9.95;5.45;;;;;;;33.62;30.27;99640.06;5093747;28;20020;-35
2022/07/24 05:23:48;;;;;;;9.48;5.47;;;;;;;33.39;30.77;99640.75;5093406;28;20039;-37
2022/07/24 05:26:13;;;;;;;11.25;5.55;;;;;;;33.34;30.77;99630.03;5093548;28;20038;-37
2022/07/24 05:28:38;;;;;;;11.23;6.10;;;;;;;33.36;31.50;99640.69;5093444;28;20024;-38
2022/07/24 05:31:04;;;;;;;10.95;5.72;;;;;;;33.69;31.40;99624.50;5092998;28;20660;-37
2022/07/24 05:33:30;;;;;;;9.05;5.95;;;;;;;33.69;30.31;99635.53;5093686;28;20023;-37
2022/07/24 05:35:56;;;;;;;12.90;5.93;;;;;;;33.64;30.50;99632.25;5093241;28;20039;-37
2022/07/24 05:38:21;;;;;;;10.57;6.20;;;;;;;33.91;29.77;99632.41;5085677;28;20376;-37
2022/07/24 05:40:47;;;;;;;13.60;6.30;;;;;;;34.46;28.87;99630.31;5073581;28;20046;-37
2022/07/24 05:43:12;;;;;;;9.68;6.20;;;;;;;34.58;28.41;99624.63;5087297;28;20051;-37
2022/07/24 05:45:38;;;;;;;10.15;5.70;;;;;;;34.25;28.46;99633.50;5093073;28;20395;-37
2022/07/24 05:48:03;;;;;;;10.55;6.35;;;;;;;34.40;28.84;99635.34;5092986;28;20020;-37
2022/07/24 05:50:29;;;;;;;12.10;5.88;;;;;;;34.34;29.03;99625.78;5092968;28;20040;-36
2022/07/24 05:52:54;;;;;;;11.05;5.90;;;;;;;35.23;27.25;99631.22;5093330;28;20496;-36
2022/07/24 05:55:19;;;;;;;10.07;6.15;;;;;;;34.99;27.52;99624.13;5092660;28;20559;-36
2022/07/24 05:57:45;;;;;;;9.18;5.95;;;;;;;34.95;27.64;99628.81;5092197;28;20024;-37
2022/07/24 06:00:13;;;;;;;13.00;6.45;;;;;;;35.18;27.34;99624.03;5092013;28;20048;-36
2022/07/24 06:02:38;;;;;;;11.45;5.80;;;;;;;35.55;26.90;99625.34;5091668;28;20028;-37
2022/07/24 06:05:04;;;;;;;10.75;6.10;;;;;;;36.02;25.67;99621.19;5091964;28;20020;-37
2022/07/24 06:07:29;;;;;;;12.13;6.07;;;;;;;35.70;26.69;99621.63;5091734;28;20024;-37
2022/07/24 06:09:55;;;;;;;9.13;6.00;;;;;;;35.84;26.50;99620.19;5091661;28;20115;-35
2022/07/24 06:12:20;;;;;;;11.02;5.82;;;;;;;36.00;25.67;99618.81;5090336;28;20089;-36
2022/07/24 06:14:45;;;;;;;10.77;5.82;;;;;;;37.01;24.64;99614.19;5091538;28;20024;-37
2022/07/24 06:17:11;;;;;;;11.23;6.18;;;;;;;36.55;25.63;99607.09;5091572;28;20103;-37
2022/07/24 06:19:36;;;;;;;10.63;5.90;;;;;;;36.34;25.34;99604.13;5091798;28;20499;-37
2022/07/24 06:22:02;;;;;;;15.73;6.57;;;;;;;36.32;24.57;99603.72;5091128;28;20035;-37
2022/07/24 06:24:27;;;;;;;10.52;6.10;;;;;;;36.84;24.12;99604.56;5091104;28;20024;-36
2022/07/24 06:26:52;;;;;;;14.48;6.28;;;;;;;37.35;23.45;99606.50;5091299;28;20499;-36
2022/07/24 06:29:18;;;;;;;11.25;6.43;;;;;;;37.12;23.65;99595.66;5091017;28;20448;-37
2022/07/24 06:31:43;;;;;;;10.88;5.90;;;;;;;37.04;23.48;99598.78;5091036;28;20031;-37
2022/07/24 06:34:09;;;;;;;17.20;6.30;;;;;;;37.40;23.19;99602.59;5091068;28;20027;-37
2022/07/24 06:36:34;;;;;;;10.75;6.00;;;;;;;38.24;22.56;99601.72;5091159;28;20557;-37
2022/07/24 06:39:00;;;;;;;12.85;6.13;;;;;;;37.74;22.87;99594.81;5090296;28;20020;-37
2022/07/24 06:41:25;;;;;;;10.70;6.50;;;;;;;37.49;22.82;99594.69;5078130;28;20096;-36
2022/07/24 06:43:51;;;;;;;10.90;6.13;;;;;;;37.53;22.87;99589.16;5079865;28;20408;-37
2022/07/24 06:46:16;;;;;;;11.68;6.25;;;;;;;38.38;22.60;99590.59;5081279;28;20039;-37
2022/07/24 06:48:41;;;;;;;10.63;6.40;;;;;;;38.21;22.24;99592.16;5073251;28;20523;-37
2022/07/24 06:51:07;;;;;;;15.57;6.40;;;;;;;37.88;22.81;99585.75;5086766;28;20371;-37
2022/07/24 06:53:32;;;;;;;9.75;6.38;;;;;;;37.71;22.91;99581.72;5091077;28;20020;-37
2022/07/24 06:55:58;;;;;;;11.43;5.95;;;;;;;38.37;22.63;99579.91;5079459;28;20104;-37
2022/07/24 06:58:23;;;;;;;13.32;6.13;;;;;;;38.58;22.23;99568.03;5075396;28;20069;-36
2022/07/24 07:00:49;;;;;;;10.63;6.25;;;;;;;38.31;22.25;99580.28;5074307;28;20028;-38
2022/07/24 07:03:15;;;;;;;15.60;6.35;;;;;;;38.39;22.57;99569.97;5070335;28;20094;-37
2022/07/24 07:05:40;;;;;;;9.00;5.88;;;;;;;38.67;21.92;99565.59;5074726;28;20099;-37
2022/07/24 07:08:06;;;;;;;9.95;6.07;;;;;;;38.96;22.06;99571.16;5079542;28;20016;-36
2022/07/24 07:10:31;;;;;;;12.75;6.75;;;;;;;38.47;22.26;99574.34;5069937;28;20025;-37
2022/07/24 07:12:57;;;;;;;12.98;6.40;;;;;;;38.60;22.52;99571.19;5070137;28;20044;-37
2022/07/24 07:15:23;;;;;;;9.50;6.30;;;;;;;38.61;22.44;99575.56;5070500;28;20016;-37
2022/07/24 07:17:48;;;;;;;14.65;6.57;;;;;;;39.08;21.91;99571.53;5076262;28;20028;-37
2022/07/24 07:20:14;;;;;;;9.80;6.38;;;;;;;38.69;22.19;99566.81;5070381;28;20508;-37
2022/07/24 07:22:41;;;;;;;9.13;6.38;;;;;;;38.53;22.40;99567.22;5080343;28;20047;-37
2022/07/24 07:25:07;;;;;;;11.98;6.22;;;;;;;38.53;22.42;99567.22;5082900;28;20024;-37
2022/07/24 07:27:33;;;;;;;11.73;6.47;;;;;;;38.83;22.13;99563.22;5069902;28;20523;-36
2022/07/24 07:29:59;;;;;;;11.45;6.38;;;;;;;38.27;22.73;99567.56;5070093;28;20037;-37
2022/07/24 07:32:24;;;;;;;11.32;6.65;;;;;;;38.56;22.80;99556.50;5070001;28;20032;-37
2022/07/24 07:34:50;;;;;;;14.15;6.40;;;;;;;38.44;22.40;99547.34;5070081;28;20047;-37
2022/07/24 07:37:15;;;;;;;13.45;6.40;;;;;;;38.68;22.58;99548.53;5069901;28;20036;-37
2022/07/24 07:39:41;;;;;;;10.82;6.20;;;;;;;38.18;23.23;99553.31;5087498;28;20038;-38
2022/07/24 07:42:06;;;;;;;14.13;6.55;;;;;;;38.57;22.78;99546.97;5089793;28;20028;-36
2022/07/24 07:44:32;;;;;;;19.75;6.38;;;;;;;38.78;22.95;99546.16;5090118;28;20028;-37
2022/07/24 07:46:57;;;;;;;12.57;5.93;;;;;;;39.21;22.87;99549.63;5090196;28;20503;-37
2022/07/24 07:49:23;;;;;;;11.52;5.82;;;;;;;39.24;22.55;99550.81;5078663;28;20460;-37
2022/07/24 07:51:51;;;;;;;7.97;6.03;;;;;;;39.17;22.33;99548.06;5069719;28;20053;-37
2022/07/24 07:54:17;;;;;;;10.20;5.68;;;;;;;39.11;22.88;99547.69;5069121;28;20020;-36
2022/07/24 07:56:42;;;;;;;11.85;6.10;;;;;;;39.12;22.80;99537.34;5069557;28;20035;-37
2022/07/24 07:59:07;;;;;;;15.43;6.07;;;;;;;39.37;22.60;99542.81;5069669;28;20029;-37
2022/07/24 08:01:33;;;;;;;14.63;5.90;;;;;;;39.40;22.87;99542.03;5069566;28;20028;-37
2022/07/24 08:03:58;;;;;;;11.52;5.63;;;;;;;39.36;21.94;99532.91;5069355;28;20142;-37
2022/07/24 08:06:24;;;;;;;13.20;5.90;;;;;;;39.20;22.46;99539.69;5069456;28;20020;-36
2022/07/24 08:08:50;;;;;;;12.75;5.68;;;;;;;40.17;21.81;99527.28;5069540;28;20024;-37
2022/07/24 08:11:15;;;;;;;13.98;5.55;;;;;;;39.28;22.22;99532.13;5068598;28;20033;-37
2022/07/24 08:13:41;;;;;;;11.15;5.40;;;;;;;39.18;22.27;99532.97;5069223;28;20024;-37
2022/07/24 08:16:06;;;;;;;8.70;5.53;;;;;;;39.45;22.46;99536.03;5069241;28;20503;-36
2022/07/24 08:18:32;;;;;;;11.18;5.30;;;;;;;40.33;21.67;99519.22;5069666;28;20645;-38
2022/07/24 08:20:57;;;;;;;9.10;5.53;;;;;;;40.01;21.39;99522.22;5069318;28;20505;-37
2022/07/24 08:23:23;;;;;;;8.43;4.93;;;;;;;39.86;22.03;99529.88;5068974;28;20021;-36
2022/07/24 08:25:48;;;;;;;10.63;5.18;;;;;;;39.72;21.59;99521.59;5084314;28;20055;-35
2022/07/24 08:28:13;;;;;;;8.00;5.25;;;;;;;40.37;21.04;99519.19;5077623;28;20028;-37
2022/07/24 08:30:39;;;;;;;13.40;4.90;;;;;;;40.01;21.48;99517.44;5074937;28;20444;-37
2022/07/24 08:33:04;;;;;;;10.98;5.22;;;;;;;39.25;21.84;99516.25;5077147;28;20032;-37
2022/07/24 08:35:30;;;;;;;9.50;4.53;;;;;;;39.24;22.41;99517.44;5074243;28;20028;-37
2022/07/24 08:37:55;;;;;;;9.45;4.72;;;;;;;39.68;21.96;99514.06;5080145;28;20029;-37
2022/07/24 08:40:22;;;;;;;9.27;5.00;;;;;;;40.49;21.41;99513.09;5080981;28;20614;-37
2022/07/24 08:42:47;;;;;;;7.95;4.95;;;;;;;40.01;21.13;99513.88;5081297;28;20024;-37
2022/07/24 08:45:13;;;;;;;6.55;4.70;;;;;;;39.82;21.56;99504.03;5085745;28;20036;-37
2022/07/24 08:47:41;;;;;;;10.82;5.00;;;;;;;39.90;21.46;99504.81;5071687;28;20032;-37
2022/07/24 08:50:09;;;;;;;7.20;4.68;;;;;;;40.12;21.64;99511.81;5089360;28;20091;-36
2022/07/24 08:52:35;;;;;;;9.23;4.90;;;;;;;39.77;21.84;99502.47;5089588;28;20055;-37
2022/07/24 08:55:01;;;;;;;10.02;5.07;;;;;;;40.13;21.52;99501.44;5089072;28;20035;-37
2022/07/24 08:57:26;;;;;;;11.02;5.10;;;;;;;40.18;21.54;99496.22;5089186;28;20028;-36
2022/07/24 08:59:52;;;;;;;7.60;4.80;;;;;;;40.58;21.46;99495.91;5089534;28;20449;-37
2022/07/24 09:02:18;;;;;;;9.82;5.85;;;;;;;40.43;21.13;99490.44;5089428;28;20128;-37
2022/07/24 09:04:46;;;;;;;7.75;4.72;;;;;;;40.34;21.93;99489.34;5089260;28;20107;-36
2022/07/24 09:07:16;;;;;;;8.32;4.90;;;;;;;40.48;21.44;99493.97;5089507;28;20028;-38
2022/07/24 09:09:44;;;;;;;9.88;5.13;;;;;;;40.86;20.97;99488.44;5090049;28;20161;-37
2022/07/24 09:12:13;;;;;;;11.98;5.00;;;;;;;40.92;21.15;99490.38;5090068;28;20111;-37
2022/07/24 09:14:40;;;;;;;9.63;5.15;;;;;;;40.58;20.82;99491.09;5089653;28;20032;-36
2022/07/24 09:17:12;;;;;;;9.10;4.93;;;;;;;40.13;21.94;99477.16;5089151;28;20034;-38
2022/07/24 09:19:49;;;;;;;11.07;5.20;;;;;;;40.27;21.96;99479.03;5069308;28;20024;-37
2022/07/24 09:22:34;;;;;;;8.70;5.10;;;;;;;40.88;21.47;99483.22;5070171;28;20036;-37
2022/07/24 09:25:23;;;;;;;8.25;5.05;;;;;;;40.67;21.45;99473.09;5078065;28;20028;-37
2022/07/24 09:27:48;;;;;;;8.85;5.18;;;;;;;40.52;22.02;99480.81;5073648;28;20043;-37
2022/07/24 09:30:43;;;;;;;10.75;5.07;;;;;;;40.30;22.29;99471.84;5077932;28;20040;-36
2022/07/24 09:33:11;;;;;;;9.57;5.15;;;;;;;40.93;21.38;99468.84;5072749;28;20077;-36
2022/07/24 09:35:42;;;;;;;10.00;4.80;;;;;;;40.49;21.58;99464.91;5072624;28;20028;-36
2022/07/24 09:38:16;;;;;;;8.05;4.78;;;;;;;40.53;21.08;99463.66;5076933;28;20031;-36
2022/07/24 09:40:44;;;;;;;8.35;5.47;;;;;;;40.50;21.50;99467.31;5092583;28;20112;-37
2022/07/24 09:43:27;;;;;;;10.48;5.22;;;;;;;40.54;21.48;99450.53;5092547;28;20028;-36
2022/07/24 09:45:59;;;;;;;9.90;5.50;;;;;;;40.22;21.21;99454.41;5092730;28;20031;-37
2022/07/24 09:48:33;;;;;;;9.05;5.38;;;;;;;40.28;22.11;99455.53;5092752;28;20046;-37
2022/07/24 09:51:05;;;;;;;8.65;5.18;;;;;;;40.28;21.90;99454.75;5092564;28;20067;-37
2022/07/24 09:53:33;;;;;;;8.32;5.30;;;;;;;40.68;21.60;99449.59;5092601;28;20035;-36
2022/07/24 09:56:08;;;;;;;9.10;4.90;;;;;;;40.99;20.91;99447.63;5092975;28;20074;-36
2022/07/24 09:58:39;;;;;;;9.57;5.22;;;;;;;40.94;21.52;99442.53;5092378;28;20101;-36
2022/07/24 10:01:06;;;;;;;11.48;5.57;;;;;;;40.91;21.40;99437.78;5092616;28;20039;-37
2022/07/24 10:03:35;;;;;;;9.80;5.20;;;;;;;41.13;20.42;99436.31;5086539;28;20039;-37
2022/07/24 10:06:04;;;;;;;10.85;5.97;;;;;;;41.44;20.21;99429.94;5082942;28;20063;-37
2022/07/24 10:08:31;;;;;;;8.57;5.30;;;;;;;41.43;20.53;99429.13;5083342;28;20032;-37
2022/07/24 10:10:57;;;;;;;6.57;4.97;;;;;;;41.47;20.15;99424.31;5083098;28;20028;-38
2022/07/24 10:13:24;;;;;;;8.13;5.47;;;;;;;41.50;20.53;99428.25;5083041;28;20416;-37
2022/07/24 10:16:03;;;;;;;7.78;4.95;;;;;;;41.48;20.49;99434.25;5080315;28;20330;-37
2022/07/24 10:18:52;;;;;;;;;;;;;;;41.38;20.15;99429.63;5082568;28;20404;-39
2022/07/24 10:21:23;;;;;;;10.45;5.03;;;;;;;40.80;20.35;99427.56;5074098;28;19919;-37
2022/07/24 10:23:57;;;;;;;8.27;5.88;;;;;;;40.80;20.96;99421.19;5074027;28;20040;-37
2022/07/24 10:26:34;;;;;;;11.15;5.60;;;;;;;40.92;20.32;99419.81;5080009;28;20445;-37
2022/07/24 10:29:07;;;;;;;9.30;5.40;;;;;;;41.47;20.11;99410.34;5083929;28;20059;-37
2022/07/24 10:31:35;;;;;;;8.23;5.10;;;;;;;41.08;19.95;99405.28;5091680;28;20028;-37
2022/07/24 10:34:06;;;;;;;11.10;5.80;;;;;;;40.96;19.92;99406.66;5090465;28;20548;-37
2022/07/24 10:36:36;;;;;;;9.23;5.38;;;;;;;40.86;21.26;99401.97;5081389;28;20138;-37
2022/07/24 10:39:13;;;;;;;8.18;5.35;;;;;;;41.63;19.94;99403.34;5077015;28;20098;-38
2022/07/24 10:41:38;;;;;;;12.57;5.90;;;;;;;41.72;19.89;99398.03;5089207;28;20031;-37
2022/07/24 10:44:19;;;;;;;11.68;5.50;;;;;;;41.60;19.50;99396.56;5080650;28;20042;-37
2022/07/24 10:46:56;;;;;;;11.85;5.28;;;;;;;41.52;19.20;99395.09;5079893;28;20459;-37
2022/07/24 10:49:44;;;;;;;7.80;4.90;;;;;;;41.53;20.31;99391.13;5082545;28;20040;-37
2022/07/24 10:52:24;;;;;;;7.32;4.97;;;;;;;41.53;19.63;99379.94;5076745;28;20122;-37
2022/07/24 10:55:20;;;;;;;8.20;4.95;;;;;;;41.60;19.70;99382.59;5073408;28;20486;-37
2022/07/24 10:58:15;;;;;;;10.00;5.15;;;;;;;41.78;19.39;99371.97;5083996;28;20053;-38
2022/07/24 11:00:48;;;;;;;13.88;5.22;;;;;;;41.94;18.67;99370.50;5076389;28;20024;-37
2022/07/24 11:03:25;;;;;;;13.07;5.30;;;;;;;42.91;17.55;99375.03;5070983;28;20059;-37
2022/07/24 11:06:07;;;;;;;10.60;5.05;;;;;;;42.26;18.20;99363.56;5070994;28;20031;-37
2022/07/24 11:08:39;;;;;;;8.57;5.13;;;;;;;42.16;18.58;99365.34;5071360;28;20086;-37
2022/07/24 11:11:10;;;;;;;9.63;5.43;;;;;;;42.33;17.66;99352.25;5071322;28;20058;-37
2022/07/24 11:13:35;;;;;;;11.38;5.15;;;;;;;42.36;17.27;99352.16;5071130;28;20024;-36
2022/07/24 11:16:10;;;;;;;15.80;5.13;;;;;;;42.25;17.95;99353.56;5070157;28;20047;-37
2022/07/24 11:18:59;;;;;;;10.50;4.82;;;;;;;42.21;17.75;99355.66;5070179;28;20115;-36
2022/07/24 11:21:28;;;;;;;;;;;;;;;42.56;17.43;99345.81;5070319;28;20149;-38
2022/07/24 11:24:21;;;;;;;12.75;5.25;;;;;;;42.73;17.43;99346.66;5070461;28;19908;-37
2022/07/24 11:26:52;;;;;;;7.88;5.03;;;;;;;42.61;17.84;99353.66;5070429;28;20040;-38
2022/07/24 11:29:27;;;;;;;9.60;5.00;;;;;;;42.58;17.77;99337.78;5070172;28;20024;-37
2022/07/24 11:32:19;;;;;;;10.10;5.18;;;;;;;42.72;17.60;99339.47;5070636;28;20029;-37
2022/07/24 11:34:47;;;;;;;9.45;4.90;;;;;;;43.03;17.03;99328.81;5067341;28;20033;-37